Laramie Regional Airport Laramie US
ICAO: KLAR
IATA: LAR
Category: Medium
Scheduled Services: Yes

Elevation: 7284 ft
TransAlt. 18000 ft.

Airport Communications:
ASOS:135.475
DENVER CNTR:125.9
CASPER RDO:122.6
CTAF/UNICOM:123.05

KLAR Zoom In..

If you have problems with the map follow the link
https://www.worldairports.se/pages/airport.php?
ICAO=KLAR

Runways:

(A) RW 03 length 8502 ft width 150 ft
---- / hdg 33

(B) RW 12 length 6300 ft width 100 ft
---- / hdg 122

(C) RW 21 length 8502 ft width 150 ft
---- / hdg 213

(D) RW 30 length 6300 ft width 100 ft
---- / hdg 302

Location; KLAR
Day. 12 / Time. 10.53 Zulu
* Altimeter: 30.01
* Temperature: 00° c. 32°f.
* Wind from: 180° Speed 15 kn with Gusts up to 23 kn.
Dewpoint: -08° c.
Visibility: 10 Statute Miles.
Clouds: Overcast 3900 ft.

KLAR 121053Z AUTO 18015G23KT 10SM OVC039 00/M08 A3001 RMK AO2 PK WND 25038/0954 SLP151 T00001078


Wind From 180°
Speed 15 kn.

 
 
jpsmedia worldairports.se 2019   terms of use